Mercury, Nevada
Current Conditions -  °F | °C
As of 12:52 AM on Sunday 26 Oct 2014 (Local Time) from KDRA Reporting Station
Clear Clear  
Wind Chill: 69°   Ceiling: Unl
Heat Index: 69°   Visibility: 10mi
Dew Point: 34°   Wind: 8mph
Humidity: 27%   Direction: 140°SE
Pressure: 29.96"   Gusts: NA
Location:  36.66°N, 116°W
Report Text: KDRA 260752Z AUTO 14007KT 10SM CLR 21/01 A2996 RMK AO2 SLP103 T02060011 402670128
Loading
Personal Weather Stations






























Interactive Weather Map
Tropical Storm Tracking
New forecast layout! Learn more

10-Day Weather Forecast

Advertisements
Track Severe Weather on mobile